createdAt,value
2023-03-07T00:02:57.696Z,33.20
2023-03-07T00:06:59.154Z,39.43
2023-03-07T00:11:02.827Z,39.70
2023-03-07T00:15:04.601Z,32.83
2023-03-07T00:19:07.394Z,35.80
2023-03-07T00:23:08.547Z,34.67
2023-03-07T00:27:09.673Z,43.33
2023-03-07T00:31:11.207Z,36.70
2023-03-07T00:35:12.373Z,37.27
2023-03-07T00:39:13.726Z,32.33
2023-03-07T00:43:14.872Z,38.87
2023-03-07T00:47:16.026Z,39.60
2023-03-07T00:51:18.765Z,36.50
2023-03-07T00:55:19.830Z,35.80
2023-03-07T00:59:20.982Z,38.97
2023-03-07T01:03:23.445Z,36.17
2023-03-07T01:07:24.564Z,37.43
2023-03-07T01:11:27.683Z,34.30
2023-03-07T01:15:28.946Z,37.20
2023-03-07T01:19:30.135Z,39.77
2023-03-07T01:23:31.277Z,34.20
2023-03-07T01:27:32.440Z,36.47
2023-03-07T01:31:33.733Z,37.93
2023-03-07T01:35:39.394Z,34.30
2023-03-07T01:39:40.507Z,36.53
2023-03-07T01:43:42.097Z,33.53
2023-03-07T01:47:44.144Z,33.03
2023-03-07T01:51:49.093Z,39.63
2023-03-07T01:55:50.247Z,34.83
2023-03-07T01:59:55.206Z,35.13
2023-03-07T02:04:03.338Z,36.43
2023-03-07T02:08:07.782Z,34.70
2023-03-07T02:12:10.642Z,34.67
2023-03-07T02:16:12.417Z,37.87
2023-03-07T02:20:26.591Z,32.53
2023-03-07T02:24:34.752Z,31.70
2023-03-07T02:28:37.519Z,36.30
2023-03-07T02:32:38.991Z,35.83
2023-03-07T02:36:40.144Z,39.50
2023-03-07T02:40:41.298Z,40.03
2023-03-07T02:44:46.480Z,39.83
2023-03-07T02:48:47.638Z,35.80
2023-03-07T02:52:49.185Z,33.83
2023-03-07T02:56:50.325Z,35.00
2023-03-07T03:00:51.978Z,32.27
2023-03-07T03:04:53.157Z,34.90
2023-03-07T03:08:54.289Z,33.60
2023-03-07T03:12:55.462Z,35.10
2023-03-07T03:16:56.615Z,31.73
2023-03-07T03:20:57.759Z,28.07
2023-03-07T03:24:58.914Z,31.37
2023-03-07T03:29:00.887Z,33.27
2023-03-07T03:33:03.054Z,28.27
2023-03-07T03:37:04.222Z,25.40
2023-03-07T03:41:06.860Z,28.33
2023-03-07T03:45:09.695Z,24.50
2023-03-07T03:49:12.574Z,25.23
2023-03-07T03:53:13.690Z,24.50
2023-03-07T03:57:19.507Z,23.93
2023-03-07T04:01:23.059Z,24.70
2023-03-07T04:05:24.250Z,23.97
2023-03-07T04:09:25.314Z,24.00
2023-03-07T04:13:26.859Z,26.00
2023-03-07T04:17:28.016Z,25.17
2023-03-07T04:21:29.183Z,23.97
2023-03-07T04:25:32.294Z,22.60
2023-03-07T04:29:33.535Z,23.90
2023-03-07T04:33:34.626Z,26.00
2023-03-07T04:37:35.783Z,29.90
2023-03-07T04:41:36.953Z,27.57
2023-03-07T04:45:38.174Z,30.07
2023-03-07T04:49:39.387Z,26.10
2023-03-07T04:53:40.553Z,29.10
2023-03-07T04:57:41.616Z,26.90
2023-03-07T05:01:42.831Z,27.60
2023-03-07T05:05:44.018Z,27.23
2023-03-07T05:09:45.176Z,25.77
2023-03-07T05:13:46.405Z,22.60
2023-03-07T05:17:47.623Z,24.77
2023-03-07T05:21:51.342Z,24.47
2023-03-07T05:25:52.478Z,25.30
2023-03-07T05:29:53.633Z,26.20
2023-03-07T05:33:54.774Z,23.60
2023-03-07T05:37:55.928Z,23.90
2023-03-07T05:41:57.067Z,28.20
2023-03-07T05:45:58.299Z,25.40
2023-03-07T05:49:59.676Z,25.70
2023-03-07T05:54:00.940Z,28.53
2023-03-07T05:58:02.844Z,29.43
2023-03-07T06:02:03.991Z,26.13
2023-03-07T06:06:05.714Z,34.83
2023-03-07T06:10:07.416Z,27.90
2023-03-07T06:14:08.551Z,30.43
2023-03-07T06:18:10.432Z,27.27
2023-03-07T06:22:11.596Z,26.07
2023-03-07T06:26:12.867Z,26.60
2023-03-07T06:30:14.157Z,25.23
2023-03-07T06:34:15.321Z,25.00
2023-03-07T06:38:17.003Z,30.03
2023-03-07T06:42:18.159Z,20.40
2023-03-07T06:46:21.042Z,23.97
2023-03-07T06:50:33.457Z,22.83
2023-03-07T06:54:25.139Z,25.60
2023-03-07T06:58:26.487Z,21.70
2023-03-07T07:02:27.849Z,27.70
2023-03-07T07:06:29.040Z,27.33
2023-03-07T07:10:30.202Z,25.07
2023-03-07T07:14:32.823Z,22.17
2023-03-07T07:18:34.344Z,25.00
2023-03-07T07:22:35.541Z,26.93
2023-03-07T07:26:36.831Z,27.20
2023-03-07T07:30:37.973Z,21.20
2023-03-07T07:34:39.129Z,23.60
2023-03-07T07:38:40.309Z,21.37
2023-03-07T07:42:42.641Z,21.40
2023-03-07T07:46:43.819Z,25.90
2023-03-07T07:50:46.286Z,25.13
2023-03-07T07:54:47.422Z,21.33
2023-03-07T07:58:48.701Z,21.50
2023-03-07T08:02:50.774Z,21.20
2023-03-07T08:06:51.918Z,21.27
2023-03-07T08:10:53.094Z,21.63
2023-03-07T08:14:54.301Z,21.30
2023-03-07T08:18:56.706Z,19.23
2023-03-07T08:22:57.841Z,22.77
2023-03-07T08:26:58.994Z,18.40
2023-03-07T08:31:14.579Z,16.80
2023-03-07T08:35:16.660Z,18.00
2023-03-07T08:39:18.238Z,20.50
2023-03-07T08:43:19.792Z,18.50
2023-03-07T08:47:20.948Z,19.43
2023-03-07T08:51:22.540Z,14.83
2023-03-07T08:55:23.672Z,21.80
2023-03-07T08:59:25.131Z,16.23
2023-03-07T09:03:26.293Z,15.40
2023-03-07T09:07:27.782Z,19.37
2023-03-07T09:11:29.144Z,17.50
2023-03-07T09:15:30.331Z,18.80
2023-03-07T09:19:31.512Z,16.83
2023-03-07T09:23:32.983Z,15.20
2023-03-07T09:27:34.758Z,15.83
2023-03-07T09:31:36.102Z,14.83
2023-03-07T09:35:38.771Z,13.37
2023-03-07T09:39:39.921Z,12.47
2023-03-07T09:43:47.881Z,13.87
2023-03-07T09:48:17.505Z,12.63
2023-03-07T09:52:29.969Z,13.73
2023-03-07T09:56:34.931Z,14.80
2023-03-07T10:00:39.785Z,12.83
2023-03-07T10:04:47.757Z,10.73
2023-03-07T10:08:48.918Z,11.87
2023-03-07T10:12:56.892Z,12.30
2023-03-07T10:17:01.925Z,11.90
2023-03-07T10:21:18.750Z,10.70
2023-03-07T10:25:26.273Z,12.37
2023-03-07T10:29:31.287Z,12.23
2023-03-07T10:33:33.427Z,10.90
2023-03-07T10:37:43.106Z,11.47
2023-03-07T10:41:44.256Z,10.90
2023-03-07T10:45:45.415Z,12.10
2023-03-07T10:49:48.425Z,12.03
2023-03-07T10:53:49.771Z,11.37
2023-03-07T10:57:50.966Z,11.27
2023-03-07T11:01:55.855Z,11.10
2023-03-07T11:05:57.116Z,9.60
2023-03-07T11:09:59.504Z,11.20
2023-03-07T11:14:10.186Z,15.73
2023-03-07T11:18:33.841Z,12.47
2023-03-07T11:22:37.755Z,11.30
2023-03-07T11:26:40.421Z,11.10
2023-03-07T11:30:53.077Z,11.53
2023-03-07T11:35:07.208Z,9.63
2023-03-07T11:39:12.197Z,14.00
2023-03-07T11:43:20.657Z,9.77
2023-03-07T11:47:42.963Z,13.23
2023-03-07T11:51:50.986Z,11.30
2023-03-07T11:56:02.001Z,9.60
2023-03-07T12:00:13.161Z,11.50
2023-03-07T12:04:27.191Z,9.40
2023-03-07T12:08:38.204Z,10.87
2023-03-07T12:12:49.488Z,14.60
2023-03-07T12:17:00.744Z,14.10
2023-03-07T12:21:17.305Z,9.80
2023-03-07T12:25:31.302Z,11.50
2023-03-07T12:29:36.242Z,11.83
2023-03-07T12:33:53.400Z,11.40
2023-03-07T12:38:04.836Z,16.33
2023-03-07T12:42:41.976Z,8.10
2023-03-07T12:46:53.138Z,13.07
2023-03-07T12:51:19.177Z,10.20
2023-03-07T12:55:35.870Z,9.77
2023-03-07T12:59:40.819Z,10.20
2023-03-07T13:04:19.544Z,10.23
2023-03-07T13:08:23.098Z,13.50
2023-03-07T13:12:30.607Z,11.20
2023-03-07T13:16:44.111Z,12.97
2023-03-07T13:20:45.301Z,11.37
2023-03-07T13:24:48.558Z,12.40
2023-03-07T13:28:50.754Z,10.80
2023-03-07T13:32:55.235Z,13.30
2023-03-07T13:36:56.413Z,12.50
2023-03-07T13:41:00.519Z,14.90
2023-03-07T13:45:01.673Z,13.33
2023-03-07T13:49:03.232Z,13.07
2023-03-07T13:53:23.500Z,11.10
2023-03-07T13:57:30.698Z,12.60
2023-03-07T14:01:38.648Z,14.73
2023-03-07T14:05:39.813Z,14.30
2023-03-07T14:10:19.646Z,12.07
2023-03-07T14:14:15.814Z,14.83
2023-03-07T14:18:30.771Z,13.53
2023-03-07T14:22:53.946Z,16.40
2023-03-07T14:26:59.524Z,15.23
2023-03-07T14:31:05.120Z,17.07
2023-03-07T14:35:07.135Z,11.93
2023-03-07T14:39:12.345Z,20.50
2023-03-07T14:43:23.291Z,14.57
2023-03-07T14:47:51.314Z,15.53
2023-03-07T14:51:52.742Z,13.57
2023-03-07T14:55:55.900Z,17.80
2023-03-07T15:00:07.116Z,17.40
2023-03-07T15:04:24.469Z,18.27
2023-03-07T15:08:31.479Z,16.60
2023-03-07T15:12:32.692Z,12.60
2023-03-07T15:16:40.710Z,10.23
2023-03-07T15:20:43.288Z,9.60
2023-03-07T15:24:47.369Z,15.37
2023-03-07T15:28:49.947Z,15.57
2023-03-07T15:33:02.852Z,15.23
2023-03-07T15:37:26.986Z,12.40
2023-03-07T15:41:32.767Z,12.73
2023-03-07T15:45:37.676Z,12.17
2023-03-07T15:49:48.602Z,12.57
2023-03-07T15:53:55.819Z,11.83
2023-03-07T15:58:07.004Z,10.93
2023-03-07T16:02:32.302Z,10.90
2023-03-07T16:06:42.765Z,13.33
2023-03-07T16:10:47.703Z,12.20
2023-03-07T16:14:50.880Z,11.70
2023-03-07T16:18:53.151Z,11.00
2023-03-07T16:22:55.114Z,11.53
2023-03-07T16:26:57.219Z,15.63
2023-03-07T16:30:58.571Z,12.17
2023-03-07T16:34:59.763Z,16.17
2023-03-07T16:39:00.914Z,14.80
2023-03-07T16:43:02.233Z,17.70
2023-03-07T16:47:07.852Z,13.67
2023-03-07T16:51:21.110Z,16.77
2023-03-07T16:55:22.770Z,14.67
2023-03-07T16:59:27.791Z,20.10
2023-03-07T17:03:29.992Z,15.23
2023-03-07T17:07:31.196Z,14.93
2023-03-07T17:11:32.842Z,12.93
2023-03-07T17:15:35.745Z,18.13
2023-03-07T17:19:36.915Z,14.23
2023-03-07T17:23:38.086Z,20.23
2023-03-07T17:27:46.098Z,18.13
2023-03-07T17:31:47.273Z,17.03
2023-03-07T17:35:48.487Z,13.97
2023-03-07T17:39:49.627Z,15.50
2023-03-07T17:43:51.609Z,14.63
2023-03-07T17:47:53.890Z,16.40
2023-03-07T17:51:55.041Z,13.47
2023-03-07T17:55:57.223Z,13.47
2023-03-07T17:59:58.379Z,13.33
2023-03-07T18:03:59.829Z,16.77
2023-03-07T18:08:01.011Z,17.63
2023-03-07T18:12:02.177Z,15.53
2023-03-07T18:16:04.393Z,14.53
2023-03-07T18:20:08.397Z,15.50
2023-03-07T18:24:21.548Z,17.50
2023-03-07T18:28:22.740Z,16.57
2023-03-07T18:32:24.580Z,17.50
2023-03-07T18:36:26.239Z,15.37
2023-03-07T18:40:27.362Z,13.50
2023-03-07T18:44:28.515Z,12.43
2023-03-07T18:48:29.674Z,14.27
2023-03-07T18:52:30.857Z,15.83
2023-03-07T18:56:32.723Z,11.07
2023-03-07T19:00:33.913Z,13.33
2023-03-07T19:04:35.038Z,13.70
2023-03-07T19:08:36.280Z,12.43
2023-03-07T19:12:37.444Z,13.93
2023-03-07T19:16:39.022Z,13.17
2023-03-07T19:20:40.851Z,13.07
2023-03-07T19:24:43.856Z,13.80
2023-03-07T19:28:46.447Z,16.93
2023-03-07T19:32:47.650Z,14.60
2023-03-07T19:36:48.740Z,12.70
2023-03-07T19:40:49.893Z,14.17
2023-03-07T19:44:53.628Z,12.90
2023-03-07T19:48:55.012Z,12.80
2023-03-07T19:52:58.050Z,15.37
2023-03-07T19:56:59.104Z,13.87
2023-03-07T20:01:04.138Z,14.87
2023-03-07T20:05:07.454Z,12.30
2023-03-07T20:09:12.257Z,15.10
2023-03-07T20:13:14.153Z,12.73
2023-03-07T20:17:15.325Z,14.57
2023-03-07T20:21:17.610Z,12.27
2023-03-07T20:25:18.691Z,18.23
2023-03-07T20:29:19.863Z,14.20
2023-03-07T20:33:21.153Z,13.47
2023-03-07T20:37:22.346Z,16.63
2023-03-07T20:41:27.128Z,15.43
2023-03-07T20:45:28.378Z,15.80
2023-03-07T20:49:29.538Z,13.90
2023-03-07T20:53:31.722Z,13.70
2023-03-07T20:57:32.885Z,18.50
2023-03-07T21:01:35.014Z,14.60
2023-03-07T21:05:36.171Z,14.67
2023-03-07T21:09:37.404Z,13.27
2023-03-07T21:13:40.766Z,16.50
2023-03-07T21:17:41.918Z,14.07
2023-03-07T21:21:43.684Z,15.63
2023-03-07T21:25:45.910Z,15.87
2023-03-07T21:29:47.115Z,13.80
2023-03-07T21:33:51.708Z,13.87
2023-03-07T21:37:52.804Z,15.87
2023-03-07T21:41:54.020Z,16.47
2023-03-07T21:45:55.464Z,17.67
2023-03-07T21:49:56.785Z,16.07
2023-03-07T21:53:58.135Z,11.00
2023-03-07T21:57:59.289Z,7.53
2023-03-07T22:02:00.958Z,6.90
2023-03-07T22:06:07.634Z,5.60
2023-03-07T22:10:09.745Z,6.10
2023-03-07T22:14:10.932Z,4.87
2023-03-07T22:18:11.997Z,5.10
2023-03-07T22:22:13.137Z,6.00
2023-03-07T22:26:14.403Z,5.70
2023-03-07T22:30:15.817Z,6.00
2023-03-07T22:34:16.927Z,5.63
2023-03-07T22:38:19.978Z,5.20
2023-03-07T22:42:21.142Z,7.40
2023-03-07T22:46:22.702Z,5.10
2023-03-07T22:50:23.957Z,6.50
2023-03-07T22:54:25.147Z,5.77
2023-03-07T22:58:27.604Z,5.40
2023-03-07T23:02:28.762Z,4.60
2023-03-07T23:06:31.534Z,5.40
2023-03-07T23:10:32.789Z,6.17
2023-03-07T23:14:35.650Z,5.00
2023-03-07T23:18:38.423Z,5.43
2023-03-07T23:22:41.467Z,4.53
2023-03-07T23:26:42.665Z,4.53
2023-03-07T23:30:43.858Z,4.40
2023-03-07T23:34:45.824Z,4.40
2023-03-07T23:38:47.149Z,3.93
2023-03-07T23:42:48.310Z,3.43
2023-03-07T23:46:49.578Z,3.87
2023-03-07T23:50:50.757Z,3.60
2023-03-07T23:54:51.932Z,3.60
2023-03-07T23:58:53.932Z,4.23
